sensor_id;sensor_type;location;lat;lon;timestamp;pressure;altitude;pressure_sealevel;temperature;humidity
23166;BME280;11751;42.700;24.170;2024-03-29T00:00:54;93734.97;;;9.02;nan
23166;BME280;11751;42.700;24.170;2024-03-29T00:03:20;93730.78;;;8.73;nan
23166;BME280;11751;42.700;24.170;2024-03-29T00:05:46;93735.47;;;8.86;nan
23166;BME280;11751;42.700;24.170;2024-03-29T00:08:11;93732.69;;;8.86;nan
23166;BME280;11751;42.700;24.170;2024-03-29T00:10:36;93735.25;;;8.69;nan
23166;BME280;11751;42.700;24.170;2024-03-29T00:13:02;93723.16;;;8.74;nan
23166;BME280;11751;42.700;24.170;2024-03-29T00:15:27;93727.06;;;8.71;nan
23166;BME280;11751;42.700;24.170;2024-03-29T00:17:53;93744.22;;;8.82;nan
23166;BME280;11751;42.700;24.170;2024-03-29T00:20:18;93749.19;;;8.76;nan
23166;BME280;11751;42.700;24.170;2024-03-29T00:22:46;93746.78;;;8.73;nan
23166;BME280;11751;42.700;24.170;2024-03-29T00:25:12;93759.84;;;8.78;nan
23166;BME280;11751;42.700;24.170;2024-03-29T00:27:37;93757.97;;;8.80;nan
23166;BME280;11751;42.700;24.170;2024-03-29T00:30:03;93747.13;;;8.69;nan
23166;BME280;11751;42.700;24.170;2024-03-29T00:32:28;93743.06;;;8.70;nan
23166;BME280;11751;42.700;24.170;2024-03-29T00:34:54;93753.31;;;8.75;nan
23166;BME280;11751;42.700;24.170;2024-03-29T00:37:21;93748.28;;;8.74;nan
23166;BME280;11751;42.700;24.170;2024-03-29T00:39:47;93752.06;;;8.41;nan
23166;BME280;11751;42.700;24.170;2024-03-29T00:42:12;93761.84;;;8.27;nan
23166;BME280;11751;42.700;24.170;2024-03-29T00:44:43;93769.53;;;8.42;nan
23166;BME280;11751;42.700;24.170;2024-03-29T00:47:09;93770.13;;;8.48;nan
23166;BME280;11751;42.700;24.170;2024-03-29T00:49:35;93769.03;;;8.50;nan
23166;BME280;11751;42.700;24.170;2024-03-29T00:52:01;93749.59;;;8.38;nan
23166;BME280;11751;42.700;24.170;2024-03-29T00:54:27;93740.50;;;8.37;nan
23166;BME280;11751;42.700;24.170;2024-03-29T00:56:52;93754.25;;;8.35;nan
23166;BME280;11751;42.700;24.170;2024-03-29T00:59:18;93761.34;;;8.08;nan
23166;BME280;11751;42.700;24.170;2024-03-29T01:01:45;93753.78;;;7.88;nan
23166;BME280;11751;42.700;24.170;2024-03-29T01:04:11;93763.56;;;8.10;nan
23166;BME280;11751;42.700;24.170;2024-03-29T01:06:37;93743.16;;;8.15;nan
23166;BME280;11751;42.700;24.170;2024-03-29T01:09:03;93752.13;;;8.21;nan
23166;BME280;11751;42.700;24.170;2024-03-29T01:11:29;93747.28;;;7.93;nan
23166;BME280;11751;42.700;24.170;2024-03-29T01:13:55;93755.81;;;7.60;nan
23166;BME280;11751;42.700;24.170;2024-03-29T01:16:21;93755.13;;;7.67;nan
23166;BME280;11751;42.700;24.170;2024-03-29T01:18:46;93754.66;;;7.83;nan
23166;BME280;11751;42.700;24.170;2024-03-29T01:21:12;93757.16;;;7.94;nan
23166;BME280;11751;42.700;24.170;2024-03-29T01:23:38;93758.72;;;8.03;nan
23166;BME280;11751;42.700;24.170;2024-03-29T01:26:04;93751.53;;;8.15;nan
23166;BME280;11751;42.700;24.170;2024-03-29T01:28:30;93753.72;;;8.09;nan
23166;BME280;11751;42.700;24.170;2024-03-29T01:30:55;93771.34;;;8.04;nan
23166;BME280;11751;42.700;24.170;2024-03-29T01:33:21;93766.88;;;8.01;nan
23166;BME280;11751;42.700;24.170;2024-03-29T01:35:47;93778.16;;;8.16;nan
23166;BME280;11751;42.700;24.170;2024-03-29T01:38:14;93771.59;;;8.13;nan
23166;BME280;11751;42.700;24.170;2024-03-29T01:40:39;93756.56;;;8.16;nan
23166;BME280;11751;42.700;24.170;2024-03-29T01:43:05;93768.13;;;8.20;nan
23166;BME280;11751;42.700;24.170;2024-03-29T01:45:31;93768.06;;;8.13;nan
23166;BME280;11751;42.700;24.170;2024-03-29T01:47:56;93774.59;;;8.15;nan
23166;BME280;11751;42.700;24.170;2024-03-29T01:50:22;93780.00;;;7.93;nan
23166;BME280;11751;42.700;24.170;2024-03-29T01:52:49;93790.31;;;8.05;nan
23166;BME280;11751;42.700;24.170;2024-03-29T01:55:15;93784.88;;;8.00;nan
23166;BME280;11751;42.700;24.170;2024-03-29T01:57:41;93793.66;;;8.04;nan
23166;BME280;11751;42.700;24.170;2024-03-29T02:00:07;93805.09;;;7.93;nan
23166;BME280;11751;42.700;24.170;2024-03-29T02:02:33;93802.13;;;7.91;nan
23166;BME280;11751;42.700;24.170;2024-03-29T02:04:59;93809.38;;;7.94;nan
23166;BME280;11751;42.700;24.170;2024-03-29T02:07:25;93811.72;;;7.82;nan
23166;BME280;11751;42.700;24.170;2024-03-29T02:09:51;93810.38;;;7.76;nan
23166;BME280;11751;42.700;24.170;2024-03-29T02:12:16;93812.81;;;7.79;nan
23166;BME280;11751;42.700;24.170;2024-03-29T02:14:41;93811.31;;;7.78;nan
23166;BME280;11751;42.700;24.170;2024-03-29T02:17:08;93816.09;;;7.70;nan
23166;BME280;11751;42.700;24.170;2024-03-29T02:19:34;93819.75;;;7.65;nan
23166;BME280;11751;42.700;24.170;2024-03-29T02:21:59;93826.47;;;7.70;nan
23166;BME280;11751;42.700;24.170;2024-03-29T02:24:26;93822.28;;;7.56;nan
23166;BME280;11751;42.700;24.170;2024-03-29T02:26:56;93817.03;;;7.32;nan
23166;BME280;11751;42.700;24.170;2024-03-29T02:29:21;93828.25;;;7.40;nan
23166;BME280;11751;42.700;24.170;2024-03-29T02:31:48;93833.75;;;7.32;nan
23166;BME280;11751;42.700;24.170;2024-03-29T02:34:13;93832.25;;;7.31;nan
23166;BME280;11751;42.700;24.170;2024-03-29T02:36:38;93835.19;;;7.46;nan
23166;BME280;11751;42.700;24.170;2024-03-29T02:39:04;93836.00;;;7.54;nan
23166;BME280;11751;42.700;24.170;2024-03-29T02:41:30;93836.34;;;7.51;nan
23166;BME280;11751;42.700;24.170;2024-03-29T02:43:56;93843.38;;;7.31;nan
23166;BME280;11751;42.700;24.170;2024-03-29T02:46:21;93856.69;;;7.25;nan
23166;BME280;11751;42.700;24.170;2024-03-29T02:48:47;93862.47;;;7.27;nan
23166;BME280;11751;42.700;24.170;2024-03-29T02:51:12;93858.13;;;7.39;nan
23166;BME280;11751;42.700;24.170;2024-03-29T02:53:38;93860.78;;;7.45;nan
23166;BME280;11751;42.700;24.170;2024-03-29T02:56:04;93863.38;;;7.43;nan
23166;BME280;11751;42.700;24.170;2024-03-29T02:58:32;93865.00;;;7.38;nan
23166;BME280;11751;42.700;24.170;2024-03-29T03:01:05;93860.78;;;7.45;nan
23166;BME280;11751;42.700;24.170;2024-03-29T03:03:30;93876.28;;;7.53;nan
23166;BME280;11751;42.700;24.170;2024-03-29T03:05:55;93880.63;;;7.41;nan
23166;BME280;11751;42.700;24.170;2024-03-29T03:08:21;93881.66;;;7.51;nan
23166;BME280;11751;42.700;24.170;2024-03-29T03:11:05;93897.97;;;7.47;nan
23166;BME280;11751;42.700;24.170;2024-03-29T03:13:30;93894.56;;;7.41;nan
23166;BME280;11751;42.700;24.170;2024-03-29T03:15:56;93893.94;;;7.35;nan
23166;BME280;11751;42.700;24.170;2024-03-29T03:18:22;93901.53;;;7.35;nan
23166;BME280;11751;42.700;24.170;2024-03-29T03:20:54;93904.94;;;7.07;nan
23166;BME280;11751;42.700;24.170;2024-03-29T03:23:21;93904.16;;;7.20;nan
23166;BME280;11751;42.700;24.170;2024-03-29T03:25:55;93915.56;;;6.96;nan
23166;BME280;11751;42.700;24.170;2024-03-29T03:28:21;93918.16;;;6.94;nan
23166;BME280;11751;42.700;24.170;2024-03-29T03:30:47;93922.56;;;6.77;nan
23166;BME280;11751;42.700;24.170;2024-03-29T03:33:13;93930.91;;;6.77;nan
23166;BME280;11751;42.700;24.170;2024-03-29T03:35:38;93928.13;;;6.89;nan
23166;BME280;11751;42.700;24.170;2024-03-29T03:38:04;93931.84;;;6.92;nan
23166;BME280;11751;42.700;24.170;2024-03-29T03:40:29;93929.16;;;6.99;nan
23166;BME280;11751;42.700;24.170;2024-03-29T03:42:55;93912.41;;;7.12;nan
23166;BME280;11751;42.700;24.170;2024-03-29T03:45:20;93923.47;;;7.05;nan
23166;BME280;11751;42.700;24.170;2024-03-29T03:47:46;93923.38;;;6.97;nan
23166;BME280;11751;42.700;24.170;2024-03-29T03:50:11;93925.72;;;7.06;nan
23166;BME280;11751;42.700;24.170;2024-03-29T03:52:36;93937.03;;;7.21;nan
23166;BME280;11751;42.700;24.170;2024-03-29T03:55:02;93944.94;;;7.30;nan
23166;BME280;11751;42.700;24.170;2024-03-29T03:57:27;93947.94;;;7.32;nan
23166;BME280;11751;42.700;24.170;2024-03-29T03:59:53;93954.13;;;7.38;nan
23166;BME280;11751;42.700;24.170;2024-03-29T04:02:18;93952.31;;;7.41;nan
23166;BME280;11751;42.700;24.170;2024-03-29T04:04:47;93956.94;;;7.38;nan
23166;BME280;11751;42.700;24.170;2024-03-29T04:07:13;93955.22;;;7.35;nan
23166;BME280;11751;42.700;24.170;2024-03-29T04:09:38;93963.25;;;7.26;nan
23166;BME280;11751;42.700;24.170;2024-03-29T04:12:04;93967.88;;;7.10;nan
23166;BME280;11751;42.700;24.170;2024-03-29T04:14:29;93974.50;;;7.20;nan
23166;BME280;11751;42.700;24.170;2024-03-29T04:16:54;93979.69;;;7.16;nan
23166;BME280;11751;42.700;24.170;2024-03-29T04:19:20;93983.41;;;7.06;nan
23166;BME280;11751;42.700;24.170;2024-03-29T04:21:45;93990.19;;;6.97;nan
23166;BME280;11751;42.700;24.170;2024-03-29T04:24:11;93994.91;;;6.89;nan
23166;BME280;11751;42.700;24.170;2024-03-29T04:26:36;93993.19;;;6.86;nan
23166;BME280;11751;42.700;24.170;2024-03-29T04:29:02;94000.69;;;6.78;nan
23166;BME280;11751;42.700;24.170;2024-03-29T04:31:28;94008.16;;;6.83;nan
23166;BME280;11751;42.700;24.170;2024-03-29T04:33:53;94007.75;;;6.79;nan
23166;BME280;11751;42.700;24.170;2024-03-29T04:36:19;94011.81;;;6.78;nan
23166;BME280;11751;42.700;24.170;2024-03-29T04:38:44;94015.97;;;6.59;nan
23166;BME280;11751;42.700;24.170;2024-03-29T04:41:10;94010.94;;;6.58;nan
23166;BME280;11751;42.700;24.170;2024-03-29T04:43:35;94017.59;;;6.68;nan
23166;BME280;11751;42.700;24.170;2024-03-29T04:46:11;94025.72;;;6.78;nan
23166;BME280;11751;42.700;24.170;2024-03-29T04:48:37;94021.84;;;6.81;nan
23166;BME280;11751;42.700;24.170;2024-03-29T04:51:03;94024.03;;;6.88;nan
23166;BME280;11751;42.700;24.170;2024-03-29T04:53:29;94028.72;;;6.93;nan
23166;BME280;11751;42.700;24.170;2024-03-29T04:55:55;94024.22;;;6.90;nan
23166;BME280;11751;42.700;24.170;2024-03-29T04:58:25;94045.22;;;7.04;nan
23166;BME280;11751;42.700;24.170;2024-03-29T05:00:51;94046.59;;;7.11;nan
23166;BME280;11751;42.700;24.170;2024-03-29T05:03:18;94040.94;;;7.16;nan
23166;BME280;11751;42.700;24.170;2024-03-29T05:05:44;94045.44;;;7.19;nan
23166;BME280;11751;42.700;24.170;2024-03-29T05:08:09;94037.38;;;7.29;nan
23166;BME280;11751;42.700;24.170;2024-03-29T05:10:35;94043.56;;;7.35;nan
23166;BME280;11751;42.700;24.170;2024-03-29T05:13:00;94047.00;;;7.41;nan
23166;BME280;11751;42.700;24.170;2024-03-29T05:15:28;94046.47;;;7.42;nan
23166;BME280;11751;42.700;24.170;2024-03-29T05:17:54;94046.44;;;7.55;nan
23166;BME280;11751;42.700;24.170;2024-03-29T05:20:19;94055.22;;;7.59;nan
23166;BME280;11751;42.700;24.170;2024-03-29T05:22:45;94052.41;;;7.72;nan
23166;BME280;11751;42.700;24.170;2024-03-29T05:25:10;94055.78;;;7.91;nan
23166;BME280;11751;42.700;24.170;2024-03-29T05:27:36;94052.31;;;7.98;nan
23166;BME280;11751;42.700;24.170;2024-03-29T05:30:04;94046.28;;;8.20;nan
23166;BME280;11751;42.700;24.170;2024-03-29T05:32:30;94041.72;;;8.30;nan
23166;BME280;11751;42.700;24.170;2024-03-29T05:34:56;94047.72;;;8.54;nan
23166;BME280;11751;42.700;24.170;2024-03-29T05:37:22;94053.88;;;8.80;nan
23166;BME280;11751;42.700;24.170;2024-03-29T05:39:50;94049.38;;;9.26;nan
23166;BME280;11751;42.700;24.170;2024-03-29T05:42:24;94051.91;;;9.87;nan
23166;BME280;11751;42.700;24.170;2024-03-29T05:44:50;94062.94;;;10.42;nan
23166;BME280;11751;42.700;24.170;2024-03-29T05:47:15;94047.66;;;10.81;nan
23166;BME280;11751;42.700;24.170;2024-03-29T05:49:41;94059.22;;;11.29;nan
23166;BME280;11751;42.700;24.170;2024-03-29T05:52:06;94052.84;;;11.59;nan
23166;BME280;11751;42.700;24.170;2024-03-29T05:54:31;94056.88;;;11.88;nan
23166;BME280;11751;42.700;24.170;2024-03-29T05:56:57;94060.63;;;11.75;nan
23166;BME280;11751;42.700;24.170;2024-03-29T05:59:22;94066.41;;;11.85;nan
23166;BME280;11751;42.700;24.170;2024-03-29T06:01:48;94074.00;;;12.06;nan
23166;BME280;11751;42.700;24.170;2024-03-29T06:04:14;94079.19;;;12.17;nan
23166;BME280;11751;42.700;24.170;2024-03-29T06:06:44;94063.03;;;12.33;nan
23166;BME280;11751;42.700;24.170;2024-03-29T06:09:09;94068.44;;;12.38;nan
23166;BME280;11751;42.700;24.170;2024-03-29T06:11:35;94071.50;;;12.57;nan
23166;BME280;11751;42.700;24.170;2024-03-29T06:14:01;94079.72;;;12.63;nan
23166;BME280;11751;42.700;24.170;2024-03-29T06:16:28;94064.94;;;12.86;nan
23166;BME280;11751;42.700;24.170;2024-03-29T06:19:12;94069.41;;;12.97;nan
23166;BME280;11751;42.700;24.170;2024-03-29T06:21:38;94083.56;;;13.06;nan
23166;BME280;11751;42.700;24.170;2024-03-29T06:24:08;94081.19;;;13.20;nan
23166;BME280;11751;42.700;24.170;2024-03-29T06:26:37;94075.09;;;13.31;nan
23166;BME280;11751;42.700;24.170;2024-03-29T06:29:03;94061.53;;;13.37;nan
23166;BME280;11751;42.700;24.170;2024-03-29T06:31:28;94072.91;;;13.63;nan
23166;BME280;11751;42.700;24.170;2024-03-29T06:33:54;94074.66;;;13.75;nan
23166;BME280;11751;42.700;24.170;2024-03-29T06:36:20;94083.44;;;13.96;nan
23166;BME280;11751;42.700;24.170;2024-03-29T06:38:45;94093.56;;;13.66;nan
23166;BME280;11751;42.700;24.170;2024-03-29T06:41:11;94087.28;;;13.91;nan
23166;BME280;11751;42.700;24.170;2024-03-29T06:43:36;94080.50;;;14.28;nan
23166;BME280;11751;42.700;24.170;2024-03-29T06:46:01;94077.50;;;14.26;nan
23166;BME280;11751;42.700;24.170;2024-03-29T06:48:29;94078.91;;;14.35;nan
23166;BME280;11751;42.700;24.170;2024-03-29T06:50:57;94088.50;;;14.49;nan
23166;BME280;11751;42.700;24.170;2024-03-29T06:53:22;94102.56;;;14.65;nan
23166;BME280;11751;42.700;24.170;2024-03-29T06:55:48;94090.78;;;14.86;nan
23166;BME280;11751;42.700;24.170;2024-03-29T06:58:15;94091.28;;;14.92;nan
23166;BME280;11751;42.700;24.170;2024-03-29T07:00:41;94088.69;;;15.13;nan
23166;BME280;11751;42.700;24.170;2024-03-29T07:03:06;94098.38;;;15.19;nan
23166;BME280;11751;42.700;24.170;2024-03-29T07:05:32;94098.09;;;15.15;nan
23166;BME280;11751;42.700;24.170;2024-03-29T07:07:58;94108.78;;;15.52;nan
23166;BME280;11751;42.700;24.170;2024-03-29T07:10:25;94115.91;;;15.53;nan
23166;BME280;11751;42.700;24.170;2024-03-29T07:12:50;94101.75;;;15.89;nan
23166;BME280;11751;42.700;24.170;2024-03-29T07:15:15;94102.69;;;16.20;nan
23166;BME280;11751;42.700;24.170;2024-03-29T07:17:41;94098.09;;;16.25;nan
23166;BME280;11751;42.700;24.170;2024-03-29T07:20:09;94099.88;;;16.48;nan
23166;BME280;11751;42.700;24.170;2024-03-29T07:22:34;94096.47;;;16.69;nan
23166;BME280;11751;42.700;24.170;2024-03-29T07:25:00;94090.47;;;16.84;nan
23166;BME280;11751;42.700;24.170;2024-03-29T07:27:25;94089.97;;;17.06;nan
23166;BME280;11751;42.700;24.170;2024-03-29T07:29:53;94090.66;;;17.25;nan
23166;BME280;11751;42.700;24.170;2024-03-29T07:32:18;94084.38;;;17.36;nan
23166;BME280;11751;42.700;24.170;2024-03-29T07:34:44;94090.38;;;17.61;nan
23166;BME280;11751;42.700;24.170;2024-03-29T07:37:09;94093.31;;;17.94;nan
23166;BME280;11751;42.700;24.170;2024-03-29T07:39:40;94087.94;;;18.18;nan
23166;BME280;11751;42.700;24.170;2024-03-29T07:42:06;94084.13;;;18.35;nan
23166;BME280;11751;42.700;24.170;2024-03-29T07:44:31;94084.38;;;18.39;nan
23166;BME280;11751;42.700;24.170;2024-03-29T07:46:56;94084.31;;;18.81;nan
23166;BME280;11751;42.700;24.170;2024-03-29T07:49:22;94096.34;;;19.02;nan
23166;BME280;11751;42.700;24.170;2024-03-29T07:51:47;94092.84;;;19.24;nan
23166;BME280;11751;42.700;24.170;2024-03-29T07:54:13;94096.31;;;19.34;nan
23166;BME280;11751;42.700;24.170;2024-03-29T07:56:39;94086.69;;;19.39;nan
23166;BME280;11751;42.700;24.170;2024-03-29T07:59:04;94089.06;;;19.54;nan
23166;BME280;11751;42.700;24.170;2024-03-29T08:01:29;94087.09;;;19.68;nan
23166;BME280;11751;42.700;24.170;2024-03-29T08:03:55;94088.81;;;19.73;nan
23166;BME280;11751;42.700;24.170;2024-03-29T08:06:20;94084.50;;;19.72;nan
23166;BME280;11751;42.700;24.170;2024-03-29T08:08:49;94083.75;;;19.83;nan
23166;BME280;11751;42.700;24.170;2024-03-29T08:11:14;94082.41;;;19.73;nan
23166;BME280;11751;42.700;24.170;2024-03-29T08:13:40;94092.66;;;19.89;nan
23166;BME280;11751;42.700;24.170;2024-03-29T08:16:06;94097.09;;;19.92;nan
23166;BME280;11751;42.700;24.170;2024-03-29T08:18:32;94094.25;;;20.26;nan
23166;BME280;11751;42.700;24.170;2024-03-29T08:20:59;94092.25;;;20.29;nan
23166;BME280;11751;42.700;24.170;2024-03-29T08:23:25;94087.75;;;20.49;nan
23166;BME280;11751;42.700;24.170;2024-03-29T08:25:50;94088.47;;;20.61;nan
23166;BME280;11751;42.700;24.170;2024-03-29T08:28:20;94076.78;;;20.79;nan
23166;BME280;11751;42.700;24.170;2024-03-29T08:30:45;94087.44;;;20.67;nan
23166;BME280;11751;42.700;24.170;2024-03-29T08:33:11;94088.75;;;20.89;nan
23166;BME280;11751;42.700;24.170;2024-03-29T08:35:37;94091.13;;;21.06;nan
23166;BME280;11751;42.700;24.170;2024-03-29T08:38:04;94100.47;;;21.20;nan
23166;BME280;11751;42.700;24.170;2024-03-29T08:40:30;94106.59;;;21.53;nan
23166;BME280;11751;42.700;24.170;2024-03-29T08:42:57;94093.09;;;21.53;nan
23166;BME280;11751;42.700;24.170;2024-03-29T08:45:22;94095.91;;;21.78;nan
23166;BME280;11751;42.700;24.170;2024-03-29T08:47:48;94093.88;;;21.81;nan
23166;BME280;11751;42.700;24.170;2024-03-29T08:50:14;94083.78;;;21.78;nan
23166;BME280;11751;42.700;24.170;2024-03-29T08:52:39;94091.88;;;21.83;nan
23166;BME280;11751;42.700;24.170;2024-03-29T08:55:06;94085.16;;;21.77;nan
23166;BME280;11751;42.700;24.170;2024-03-29T08:57:31;94091.25;;;21.71;nan
23166;BME280;11751;42.700;24.170;2024-03-29T08:59:57;94096.03;;;21.94;nan
23166;BME280;11751;42.700;24.170;2024-03-29T09:02:22;94094.88;;;22.12;nan
23166;BME280;11751;42.700;24.170;2024-03-29T09:04:47;94074.81;;;22.37;nan
23166;BME280;11751;42.700;24.170;2024-03-29T09:07:13;94076.41;;;22.27;nan
23166;BME280;11751;42.700;24.170;2024-03-29T09:09:39;94074.28;;;22.41;nan
23166;BME280;11751;42.700;24.170;2024-03-29T09:12:07;94055.75;;;22.55;nan
23166;BME280;11751;42.700;24.170;2024-03-29T09:14:33;94067.03;;;22.66;nan
23166;BME280;11751;42.700;24.170;2024-03-29T09:16:58;94071.41;;;22.54;nan
23166;BME280;11751;42.700;24.170;2024-03-29T09:19:24;94068.72;;;22.71;nan
23166;BME280;11751;42.700;24.170;2024-03-29T09:21:50;94074.22;;;22.67;nan
23166;BME280;11751;42.700;24.170;2024-03-29T09:24:15;94069.50;;;22.87;nan
23166;BME280;11751;42.700;24.170;2024-03-29T09:26:45;94064.25;;;22.82;nan
23166;BME280;11751;42.700;24.170;2024-03-29T09:29:10;94066.59;;;22.72;nan
23166;BME280;11751;42.700;24.170;2024-03-29T09:31:38;94054.78;;;22.93;nan
23166;BME280;11751;42.700;24.170;2024-03-29T09:34:03;94056.81;;;22.90;nan
23166;BME280;11751;42.700;24.170;2024-03-29T09:38:54;94049.72;;;23.05;nan
23166;BME280;11751;42.700;24.170;2024-03-29T09:41:19;94053.69;;;22.84;nan
23166;BME280;11751;42.700;24.170;2024-03-29T09:43:46;94052.88;;;22.97;nan
23166;BME280;11751;42.700;24.170;2024-03-29T09:46:15;94045.50;;;22.92;nan
23166;BME280;11751;42.700;24.170;2024-03-29T09:48:42;94047.09;;;23.24;nan
23166;BME280;11751;42.700;24.170;2024-03-29T09:51:09;94039.34;;;23.27;nan
23166;BME280;11751;42.700;24.170;2024-03-29T09:53:36;94031.53;;;23.42;nan
23166;BME280;11751;42.700;24.170;2024-03-29T09:56:06;94036.22;;;23.51;nan
23166;BME280;11751;42.700;24.170;2024-03-29T09:58:32;94044.25;;;23.55;nan
23166;BME280;11751;42.700;24.170;2024-03-29T10:03:24;93973.81;;;23.61;nan
23166;BME280;11751;42.700;24.170;2024-03-29T10:15:36;94084.09;;;23.51;nan
23166;BME280;11751;42.700;24.170;2024-03-29T10:25:21;93969.78;;;23.82;nan
23166;BME280;11751;42.700;24.170;2024-03-29T11:36:46;93960.13;;;25.63;nan
23166;BME280;11751;42.700;24.170;2024-03-29T11:39:22;94013.31;;;25.66;nan
23166;BME280;11751;42.700;24.170;2024-03-29T12:42:50;93901.25;;;25.98;nan
23166;BME280;11751;42.700;24.170;2024-03-29T13:51:00;93897.66;;;25.79;nan
23166;BME280;11751;42.700;24.170;2024-03-29T16:41:33;93925.41;;;21.75;nan
23166;BME280;11751;42.700;24.170;2024-03-29T16:43:58;93936.47;;;21.69;nan
23166;BME280;11751;42.700;24.170;2024-03-29T16:46:24;93944.94;;;21.53;nan
23166;BME280;11751;42.700;24.170;2024-03-29T16:48:49;93955.97;;;21.34;nan
23166;BME280;11751;42.700;24.170;2024-03-29T16:51:15;93954.59;;;21.22;nan
23166;BME280;11751;42.700;24.170;2024-03-29T16:53:40;93953.56;;;20.90;nan
23166;BME280;11751;42.700;24.170;2024-03-29T16:56:07;93955.28;;;20.95;nan
23166;BME280;11751;42.700;24.170;2024-03-29T16:58:32;93955.97;;;20.82;nan
23166;BME280;11751;42.700;24.170;2024-03-29T17:00:58;93966.13;;;20.61;nan
23166;BME280;11751;42.700;24.170;2024-03-29T17:03:23;93962.41;;;20.58;nan
23166;BME280;11751;42.700;24.170;2024-03-29T17:05:49;93967.00;;;20.52;nan
23166;BME280;11751;42.700;24.170;2024-03-29T17:08:14;93967.59;;;20.37;nan
23166;BME280;11751;42.700;24.170;2024-03-29T17:10:40;93964.41;;;20.31;nan
23166;BME280;11751;42.700;24.170;2024-03-29T17:13:05;93974.69;;;20.24;nan
23166;BME280;11751;42.700;24.170;2024-03-29T17:15:30;93967.28;;;20.19;nan
23166;BME280;11751;42.700;24.170;2024-03-29T17:17:56;93970.50;;;20.14;nan
23166;BME280;11751;42.700;24.170;2024-03-29T17:20:21;93969.03;;;20.13;nan
23166;BME280;11751;42.700;24.170;2024-03-29T17:22:47;93973.22;;;20.12;nan
23166;BME280;11751;42.700;24.170;2024-03-29T17:25:12;93974.25;;;20.05;nan
23166;BME280;11751;42.700;24.170;2024-03-29T17:27:37;93975.22;;;20.09;nan
23166;BME280;11751;42.700;24.170;2024-03-29T17:30:04;93989.19;;;19.94;nan
23166;BME280;11751;42.700;24.170;2024-03-29T17:32:30;93989.88;;;19.81;nan
23166;BME280;11751;42.700;24.170;2024-03-29T17:34:55;94004.97;;;19.72;nan
23166;BME280;11751;42.700;24.170;2024-03-29T17:37:21;94000.03;;;19.61;nan
23166;BME280;11751;42.700;24.170;2024-03-29T17:39:46;94011.75;;;19.56;nan
23166;BME280;11751;42.700;24.170;2024-03-29T17:42:12;94013.84;;;19.55;nan
23166;BME280;11751;42.700;24.170;2024-03-29T17:44:37;94013.09;;;19.43;nan
23166;BME280;11751;42.700;24.170;2024-03-29T17:47:03;94023.75;;;19.31;nan
23166;BME280;11751;42.700;24.170;2024-03-29T17:49:28;94023.47;;;19.27;nan
23166;BME280;11751;42.700;24.170;2024-03-29T17:51:54;94023.75;;;19.31;nan
23166;BME280;11751;42.700;24.170;2024-03-29T17:54:19;94030.63;;;19.40;nan
23166;BME280;11751;42.700;24.170;2024-03-29T17:56:44;94032.50;;;19.35;nan
23166;BME280;11751;42.700;24.170;2024-03-29T17:59:13;94031.38;;;19.29;nan
23166;BME280;11751;42.700;24.170;2024-03-29T18:01:40;94041.63;;;19.22;nan
23166;BME280;11751;42.700;24.170;2024-03-29T18:04:08;94044.66;;;19.03;nan
23166;BME280;11751;42.700;24.170;2024-03-29T18:06:33;94042.41;;;18.90;nan
23166;BME280;11751;42.700;24.170;2024-03-29T18:08:58;94044.09;;;18.84;nan
23166;BME280;11751;42.700;24.170;2024-03-29T18:11:24;94035.16;;;18.67;nan
23166;BME280;11751;42.700;24.170;2024-03-29T18:13:51;94045.47;;;18.51;nan
23166;BME280;11751;42.700;24.170;2024-03-29T18:16:18;94048.72;;;18.36;nan
23166;BME280;11751;42.700;24.170;2024-03-29T18:18:46;94050.66;;;18.22;nan
23166;BME280;11751;42.700;24.170;2024-03-29T18:21:13;94048.06;;;18.05;nan
23166;BME280;11751;42.700;24.170;2024-03-29T18:23:38;94050.63;;;17.80;nan
23166;BME280;11751;42.700;24.170;2024-03-29T18:26:04;94067.22;;;17.74;nan
23166;BME280;11751;42.700;24.170;2024-03-29T18:28:29;94057.00;;;17.60;nan
23166;BME280;11751;42.700;24.170;2024-03-29T18:30:55;94063.59;;;17.53;nan
23166;BME280;11751;42.700;24.170;2024-03-29T18:33:40;94064.38;;;17.44;nan
23166;BME280;11751;42.700;24.170;2024-03-29T18:36:06;94059.97;;;17.31;nan
23166;BME280;11751;42.700;24.170;2024-03-29T18:38:32;94056.69;;;17.25;nan
23166;BME280;11751;42.700;24.170;2024-03-29T18:41:01;94057.00;;;17.20;nan
23166;BME280;11751;42.700;24.170;2024-03-29T18:43:26;94049.88;;;17.10;nan
23166;BME280;11751;42.700;24.170;2024-03-29T18:45:51;94060.09;;;16.84;nan
23166;BME280;11751;42.700;24.170;2024-03-29T18:48:17;94061.31;;;16.72;nan
23166;BME280;11751;42.700;24.170;2024-03-29T18:50:42;94056.25;;;16.70;nan
23166;BME280;11751;42.700;24.170;2024-03-29T18:53:08;94045.28;;;16.46;nan
23166;BME280;11751;42.700;24.170;2024-03-29T18:55:33;94052.59;;;16.49;nan
23166;BME280;11751;42.700;24.170;2024-03-29T18:57:58;94049.59;;;16.37;nan
23166;BME280;11751;42.700;24.170;2024-03-29T19:00:24;94048.28;;;16.48;nan
23166;BME280;11751;42.700;24.170;2024-03-29T19:02:51;94052.28;;;16.54;nan
23166;BME280;11751;42.700;24.170;2024-03-29T19:05:16;94063.75;;;16.47;nan
23166;BME280;11751;42.700;24.170;2024-03-29T19:07:42;94050.19;;;16.45;nan
23166;BME280;11751;42.700;24.170;2024-03-29T19:10:08;94056.16;;;16.40;nan
23166;BME280;11751;42.700;24.170;2024-03-29T19:12:33;94052.13;;;16.43;nan
23166;BME280;11751;42.700;24.170;2024-03-29T19:15:00;94050.94;;;16.27;nan
23166;BME280;11751;42.700;24.170;2024-03-29T19:17:31;94056.44;;;16.25;nan
23166;BME280;11751;42.700;24.170;2024-03-29T19:19:57;94056.59;;;16.27;nan
23166;BME280;11751;42.700;24.170;2024-03-29T19:22:22;94060.31;;;16.20;nan
23166;BME280;11751;42.700;24.170;2024-03-29T19:24:47;94058.38;;;16.13;nan
23166;BME280;11751;42.700;24.170;2024-03-29T19:27:17;94062.84;;;16.16;nan
23166;BME280;11751;42.700;24.170;2024-03-29T19:29:48;94057.16;;;16.07;nan
23166;BME280;11751;42.700;24.170;2024-03-29T19:32:14;94060.31;;;16.11;nan
23166;BME280;11751;42.700;24.170;2024-03-29T19:34:39;94058.50;;;15.96;nan